sensor_id;sensor_type;location;lat;lon;timestamp;pressure;altitude;pressure_sealevel;temperature;humidity
44825;BME280;30542;47.928;2.138;2023-03-14T00:04:04;98477.38;;;19.18;49.86
44825;BME280;30542;47.928;2.138;2023-03-14T00:09:04;98458.50;;;19.15;49.99
44825;BME280;30542;47.928;2.138;2023-03-14T00:14:04;98448.91;;;19.13;49.74
44825;BME280;30542;47.928;2.138;2023-03-14T00:19:05;98456.13;;;19.13;49.60
44825;BME280;30542;47.928;2.138;2023-03-14T00:24:06;98427.63;;;19.00;49.69
44825;BME280;30542;47.928;2.138;2023-03-14T00:29:06;98433.31;;;19.07;49.94
44825;BME280;30542;47.928;2.138;2023-03-14T00:34:07;98436.78;;;19.07;49.92
44825;BME280;30542;47.928;2.138;2023-03-14T00:39:07;98432.84;;;19.05;49.80
44825;BME280;30542;47.928;2.138;2023-03-14T00:44:07;98419.72;;;18.95;49.56
44825;BME280;30542;47.928;2.138;2023-03-14T00:49:08;98434.22;;;19.02;49.43
44825;BME280;30542;47.928;2.138;2023-03-14T00:54:08;98434.34;;;18.97;49.97
44825;BME280;30542;47.928;2.138;2023-03-14T00:59:09;98434.03;;;18.99;49.54
44825;BME280;30542;47.928;2.138;2023-03-14T01:04:09;98437.34;;;18.96;49.52
44825;BME280;30542;47.928;2.138;2023-03-14T01:09:10;98434.16;;;18.94;49.95
44825;BME280;30542;47.928;2.138;2023-03-14T01:14:10;98433.38;;;18.93;49.96
44825;BME280;30542;47.928;2.138;2023-03-14T01:19:11;98438.53;;;18.90;49.65
44825;BME280;30542;47.928;2.138;2023-03-14T01:24:11;98428.38;;;18.78;49.52
44825;BME280;30542;47.928;2.138;2023-03-14T01:29:12;98441.78;;;18.86;49.94
44825;BME280;30542;47.928;2.138;2023-03-14T01:34:12;98439.44;;;18.85;49.87
44825;BME280;30542;47.928;2.138;2023-03-14T01:39:13;98445.38;;;18.82;49.91
44825;BME280;30542;47.928;2.138;2023-03-14T01:44:13;98446.97;;;18.83;49.40
44825;BME280;30542;47.928;2.138;2023-03-14T01:49:29;98453.69;;;18.80;49.53
44825;BME280;30542;47.928;2.138;2023-03-14T01:54:44;98433.13;;;18.81;49.96
44825;BME280;30542;47.928;2.138;2023-03-14T02:00:01;98428.09;;;18.79;49.81
44825;BME280;30542;47.928;2.138;2023-03-14T02:05:04;98425.72;;;18.78;49.81
44825;BME280;30542;47.928;2.138;2023-03-14T02:10:05;98429.50;;;18.77;49.91
44825;BME280;30542;47.928;2.138;2023-03-14T02:15:07;98438.41;;;18.72;49.82
44825;BME280;30542;47.928;2.138;2023-03-14T02:25:48;98443.41;;;18.74;49.69
44825;BME280;30542;47.928;2.138;2023-03-14T02:30:52;98433.84;;;18.73;50.00
44825;BME280;30542;47.928;2.138;2023-03-14T02:36:04;98432.84;;;18.69;49.98
44825;BME280;30542;47.928;2.138;2023-03-14T02:41:06;98435.22;;;18.70;49.63
44825;BME280;30542;47.928;2.138;2023-03-14T02:46:10;98421.78;;;18.61;49.88
44825;BME280;30542;47.928;2.138;2023-03-14T02:51:12;98429.97;;;18.65;50.16
44825;BME280;30542;47.928;2.138;2023-03-14T02:56:13;98428.09;;;18.66;50.02
44825;BME280;30542;47.928;2.138;2023-03-14T03:01:13;98435.03;;;18.67;49.66
44825;BME280;30542;47.928;2.138;2023-03-14T03:06:14;98439.66;;;18.61;49.97
44825;BME280;30542;47.928;2.138;2023-03-14T03:11:15;98458.22;;;18.66;49.50
44825;BME280;30542;47.928;2.138;2023-03-14T03:16:15;98456.38;;;18.67;49.75
44825;BME280;30542;47.928;2.138;2023-03-14T03:21:16;98459.22;;;18.70;49.39
44825;BME280;30542;47.928;2.138;2023-03-14T03:26:16;98477.44;;;18.91;49.18
44825;BME280;30542;47.928;2.138;2023-03-14T03:31:20;98472.19;;;18.99;49.27
44825;BME280;30542;47.928;2.138;2023-03-14T03:36:22;98470.34;;;19.00;49.26
44825;BME280;30542;47.928;2.138;2023-03-14T03:41:23;98480.28;;;19.08;49.24
44825;BME280;30542;47.928;2.138;2023-03-14T03:46:24;98486.88;;;19.10;48.88
44825;BME280;30542;47.928;2.138;2023-03-14T03:51:26;98487.84;;;19.15;48.98
44825;BME280;30542;47.928;2.138;2023-03-14T03:56:26;98468.00;;;19.07;48.99
44825;BME280;30542;47.928;2.138;2023-03-14T04:01:27;98494.84;;;19.24;49.09
44825;BME280;30542;47.928;2.138;2023-03-14T04:06:28;98502.22;;;19.27;49.04
44825;BME280;30542;47.928;2.138;2023-03-14T04:11:29;98505.69;;;19.28;48.99
44825;BME280;30542;47.928;2.138;2023-03-14T04:16:30;98515.44;;;19.32;48.83
44825;BME280;30542;47.928;2.138;2023-03-14T04:21:31;98513.69;;;19.28;48.91
44825;BME280;30542;47.928;2.138;2023-03-14T04:26:32;98540.63;;;19.40;49.02
44825;BME280;30542;47.928;2.138;2023-03-14T04:31:32;98533.13;;;19.42;48.84
44825;BME280;30542;47.928;2.138;2023-03-14T04:36:32;98547.44;;;19.46;48.67
44825;BME280;30542;47.928;2.138;2023-03-14T04:41:33;98559.69;;;19.47;48.76
44825;BME280;30542;47.928;2.138;2023-03-14T04:46:33;98574.34;;;19.50;49.02
44825;BME280;30542;47.928;2.138;2023-03-14T04:51:33;98590.38;;;19.50;48.63
44825;BME280;30542;47.928;2.138;2023-03-14T04:56:34;98614.59;;;19.53;48.95
44825;BME280;30542;47.928;2.138;2023-03-14T05:01:35;98634.84;;;19.54;48.82
44825;BME280;30542;47.928;2.138;2023-03-14T05:06:35;98647.09;;;19.55;48.49
44825;BME280;30542;47.928;2.138;2023-03-14T05:11:35;98669.38;;;19.51;48.43
44825;BME280;30542;47.928;2.138;2023-03-14T05:16:36;98692.19;;;19.57;48.69
44825;BME280;30542;47.928;2.138;2023-03-14T05:21:36;98709.63;;;19.54;48.49
44825;BME280;30542;47.928;2.138;2023-03-14T05:26:37;98725.25;;;19.61;48.36
44825;BME280;30542;47.928;2.138;2023-03-14T05:31:37;98744.44;;;19.63;48.06
44825;BME280;30542;47.928;2.138;2023-03-14T05:36:38;98747.41;;;19.61;48.01
44825;BME280;30542;47.928;2.138;2023-03-14T05:41:38;98786.09;;;19.64;48.09
44825;BME280;30542;47.928;2.138;2023-03-14T05:46:38;98800.22;;;19.65;48.02
44825;BME280;30542;47.928;2.138;2023-03-14T05:51:39;98819.25;;;19.63;48.00
44825;BME280;30542;47.928;2.138;2023-03-14T05:56:39;98833.84;;;19.66;48.04
44825;BME280;30542;47.928;2.138;2023-03-14T06:01:39;98856.84;;;19.67;47.86
44825;BME280;30542;47.928;2.138;2023-03-14T06:06:40;98904.31;;;19.70;47.91
44825;BME280;30542;47.928;2.138;2023-03-14T06:11:40;98943.09;;;19.67;47.65
44825;BME280;30542;47.928;2.138;2023-03-14T06:16:41;98945.63;;;19.58;48.03
44825;BME280;30542;47.928;2.138;2023-03-14T06:21:41;98946.88;;;19.66;47.26
44825;BME280;30542;47.928;2.138;2023-03-14T06:26:41;98970.03;;;19.71;47.24
44825;BME280;30542;47.928;2.138;2023-03-14T06:31:42;98986.03;;;19.71;47.48
44825;BME280;30542;47.928;2.138;2023-03-14T06:36:42;99002.28;;;19.74;47.27
44825;BME280;30542;47.928;2.138;2023-03-14T06:41:43;99019.59;;;19.77;47.53
44825;BME280;30542;47.928;2.138;2023-03-14T06:46:43;99021.97;;;19.78;47.14
44825;BME280;30542;47.928;2.138;2023-03-14T06:51:43;99056.41;;;19.80;47.42
44825;BME280;30542;47.928;2.138;2023-03-14T06:56:44;99073.44;;;19.84;47.43
44825;BME280;30542;47.928;2.138;2023-03-14T07:01:44;99093.47;;;19.86;48.21
44825;BME280;30542;47.928;2.138;2023-03-14T07:06:45;99104.16;;;19.86;48.66
44825;BME280;30542;47.928;2.138;2023-03-14T07:11:46;99105.59;;;19.79;49.14
44825;BME280;30542;47.928;2.138;2023-03-14T07:16:47;99127.38;;;19.86;49.21
44825;BME280;30542;47.928;2.138;2023-03-14T07:21:47;99155.19;;;19.85;49.32
44825;BME280;30542;47.928;2.138;2023-03-14T07:26:47;99165.44;;;19.78;49.74
44825;BME280;30542;47.928;2.138;2023-03-14T07:31:48;99191.38;;;19.77;50.45
44825;BME280;30542;47.928;2.138;2023-03-14T07:36:48;99203.59;;;19.83;50.65
44825;BME280;30542;47.928;2.138;2023-03-14T07:41:48;99227.84;;;19.87;50.44
44825;BME280;30542;47.928;2.138;2023-03-14T07:46:49;99250.72;;;19.93;50.59
44825;BME280;30542;47.928;2.138;2023-03-14T07:51:49;99253.63;;;19.97;50.47
44825;BME280;30542;47.928;2.138;2023-03-14T07:56:50;99268.56;;;19.98;50.52
44825;BME280;30542;47.928;2.138;2023-03-14T08:01:52;99275.81;;;19.97;50.46
44825;BME280;30542;47.928;2.138;2023-03-14T08:06:52;99284.59;;;19.98;50.38
44825;BME280;30542;47.928;2.138;2023-03-14T08:11:54;99305.72;;;19.99;50.42
44825;BME280;30542;47.928;2.138;2023-03-14T08:16:54;99325.22;;;20.00;50.19
44825;BME280;30542;47.928;2.138;2023-03-14T08:21:55;99329.78;;;19.99;50.15
44825;BME280;30542;47.928;2.138;2023-03-14T08:26:55;99345.00;;;19.99;50.26
44825;BME280;30542;47.928;2.138;2023-03-14T08:31:55;99366.38;;;19.99;50.30
44825;BME280;30542;47.928;2.138;2023-03-14T08:36:56;99378.94;;;19.98;50.10
44825;BME280;30542;47.928;2.138;2023-03-14T08:41:56;99393.41;;;19.97;49.92
44825;BME280;30542;47.928;2.138;2023-03-14T08:46:57;99407.00;;;20.01;50.00
44825;BME280;30542;47.928;2.138;2023-03-14T08:51:57;99417.13;;;20.04;51.09
44825;BME280;30542;47.928;2.138;2023-03-14T08:56:58;99430.75;;;20.02;50.87
44825;BME280;30542;47.928;2.138;2023-03-14T09:01:59;99440.88;;;20.05;49.97
44825;BME280;30542;47.928;2.138;2023-03-14T09:06:59;99454.25;;;20.05;49.61
44825;BME280;30542;47.928;2.138;2023-03-14T09:11:59;99463.06;;;20.06;49.93
44825;BME280;30542;47.928;2.138;2023-03-14T09:17:00;99462.78;;;20.07;49.85
44825;BME280;30542;47.928;2.138;2023-03-14T09:22:00;99483.88;;;20.09;50.11
44825;BME280;30542;47.928;2.138;2023-03-14T09:27:01;99497.31;;;20.04;50.01
44825;BME280;30542;47.928;2.138;2023-03-14T09:32:01;99456.47;;;19.74;50.16
44825;BME280;30542;47.928;2.138;2023-03-14T09:37:02;99500.22;;;20.07;50.20
44825;BME280;30542;47.928;2.138;2023-03-14T09:42:05;99510.63;;;20.09;50.20
44825;BME280;30542;47.928;2.138;2023-03-14T09:47:11;99530.13;;;20.09;50.03
44825;BME280;30542;47.928;2.138;2023-03-14T09:52:21;99538.69;;;20.06;50.06
44825;BME280;30542;47.928;2.138;2023-03-14T09:57:26;99522.63;;;20.11;49.81
44825;BME280;30542;47.928;2.138;2023-03-14T10:02:34;99538.84;;;20.20;49.81
44825;BME280;30542;47.928;2.138;2023-03-14T10:07:34;99532.75;;;20.15;49.55
44825;BME280;30542;47.928;2.138;2023-03-14T10:12:37;99561.47;;;20.28;49.50
44825;BME280;30542;47.928;2.138;2023-03-14T10:17:46;99570.50;;;20.32;49.59
44825;BME280;30542;47.928;2.138;2023-03-14T10:22:47;99564.28;;;20.42;49.39
44825;BME280;30542;47.928;2.138;2023-03-14T10:27:50;99568.25;;;20.49;49.04
44825;BME280;30542;47.928;2.138;2023-03-14T10:32:51;99579.97;;;20.53;48.94
44825;BME280;30542;47.928;2.138;2023-03-14T10:38:02;99612.63;;;20.50;48.99
44825;BME280;30542;47.928;2.138;2023-03-14T10:43:06;99626.31;;;20.49;48.97
44825;BME280;30542;47.928;2.138;2023-03-14T10:48:22;99629.78;;;20.49;48.64
44825;BME280;30542;47.928;2.138;2023-03-14T10:53:23;99632.19;;;20.46;48.56
44825;BME280;30542;47.928;2.138;2023-03-14T10:58:26;99648.22;;;20.46;48.60
44825;BME280;30542;47.928;2.138;2023-03-14T11:03:29;99656.50;;;20.44;48.59
44825;BME280;30542;47.928;2.138;2023-03-14T11:08:37;99660.28;;;20.43;48.46
44825;BME280;30542;47.928;2.138;2023-03-14T11:19:20;99677.97;;;20.39;47.93
44825;BME280;30542;47.928;2.138;2023-03-14T11:30:03;99705.31;;;20.31;48.03
44825;BME280;30542;47.928;2.138;2023-03-14T11:35:33;99699.41;;;20.34;47.87
44825;BME280;30542;47.928;2.138;2023-03-14T11:40:35;99705.81;;;20.38;47.50
44825;BME280;30542;47.928;2.138;2023-03-14T11:45:38;99699.09;;;20.41;47.45
44825;BME280;30542;47.928;2.138;2023-03-14T11:50:42;99700.41;;;20.43;47.44
44825;BME280;30542;47.928;2.138;2023-03-14T11:55:43;99707.13;;;20.41;47.29
44825;BME280;30542;47.928;2.138;2023-03-14T12:00:47;99710.06;;;20.39;47.52
44825;BME280;30542;47.928;2.138;2023-03-14T12:11:08;99707.94;;;20.36;47.06
44825;BME280;30542;47.928;2.138;2023-03-14T12:16:31;99717.06;;;20.35;47.08
44825;BME280;30542;47.928;2.138;2023-03-14T12:21:50;99714.13;;;20.36;47.08
44825;BME280;30542;47.928;2.138;2023-03-14T12:26:54;99705.41;;;20.21;47.20
44825;BME280;30542;47.928;2.138;2023-03-14T12:37:17;99734.78;;;20.26;47.17
44825;BME280;30542;47.928;2.138;2023-03-14T13:02:45;99773.38;;;20.15;47.07
44825;BME280;30542;47.928;2.138;2023-03-14T13:18:15;99735.94;;;20.15;46.87
44825;BME280;30542;47.928;2.138;2023-03-14T13:23:25;99738.59;;;20.15;47.13
44825;BME280;30542;47.928;2.138;2023-03-14T13:28:26;99726.03;;;20.15;46.97
44825;BME280;30542;47.928;2.138;2023-03-14T13:33:27;99723.16;;;20.06;46.68
44825;BME280;30542;47.928;2.138;2023-03-14T13:38:29;99726.31;;;20.14;47.01
44825;BME280;30542;47.928;2.138;2023-03-14T13:43:32;99721.03;;;20.08;46.92
44825;BME280;30542;47.928;2.138;2023-03-14T13:48:36;99727.66;;;20.11;46.82
44825;BME280;30542;47.928;2.138;2023-03-14T13:53:51;99728.50;;;20.11;46.78
44825;BME280;30542;47.928;2.138;2023-03-14T13:58:52;99724.78;;;20.07;46.78
44825;BME280;30542;47.928;2.138;2023-03-14T14:03:54;99743.72;;;20.11;46.67
44825;BME280;30542;47.928;2.138;2023-03-14T14:08:57;99731.97;;;20.07;46.76
44825;BME280;30542;47.928;2.138;2023-03-14T14:13:59;99732.50;;;20.09;46.52
44825;BME280;30542;47.928;2.138;2023-03-14T14:19:00;99734.66;;;20.07;46.66
44825;BME280;30542;47.928;2.138;2023-03-14T14:24:01;99772.38;;;20.05;46.41
44825;BME280;30542;47.928;2.138;2023-03-14T14:29:04;99780.66;;;20.04;46.41
44825;BME280;30542;47.928;2.138;2023-03-14T14:34:18;99779.88;;;20.03;46.49
44825;BME280;30542;47.928;2.138;2023-03-14T14:39:21;99782.00;;;20.01;46.68
44825;BME280;30542;47.928;2.138;2023-03-14T14:44:29;99786.00;;;20.04;46.40
44825;BME280;30542;47.928;2.138;2023-03-14T14:49:32;99786.56;;;20.01;46.74
44825;BME280;30542;47.928;2.138;2023-03-14T14:54:37;99787.34;;;20.01;46.51
44825;BME280;30542;47.928;2.138;2023-03-14T14:59:42;99782.84;;;19.97;46.68
44825;BME280;30542;47.928;2.138;2023-03-14T15:04:43;99782.00;;;20.01;46.44
44825;BME280;30542;47.928;2.138;2023-03-14T15:09:44;99788.69;;;19.99;46.38
44825;BME280;30542;47.928;2.138;2023-03-14T15:14:44;99815.72;;;19.97;46.67
44825;BME280;30542;47.928;2.138;2023-03-14T15:19:44;99824.81;;;19.96;46.70
44825;BME280;30542;47.928;2.138;2023-03-14T15:24:45;99829.63;;;19.94;46.51
44825;BME280;30542;47.928;2.138;2023-03-14T15:29:45;99832.88;;;19.91;46.49
44825;BME280;30542;47.928;2.138;2023-03-14T15:34:45;99849.97;;;19.90;46.71
44825;BME280;30542;47.928;2.138;2023-03-14T15:39:46;99854.78;;;19.88;46.61
44825;BME280;30542;47.928;2.138;2023-03-14T15:44:46;99863.59;;;19.89;46.28
44825;BME280;30542;47.928;2.138;2023-03-14T15:49:47;99857.72;;;19.92;46.23
44825;BME280;30542;47.928;2.138;2023-03-14T15:54:47;99867.03;;;19.94;46.17
44825;BME280;30542;47.928;2.138;2023-03-14T15:59:47;99872.94;;;19.96;45.85
44825;BME280;30542;47.928;2.138;2023-03-14T16:04:48;99856.13;;;19.91;46.00
44825;BME280;30542;47.928;2.138;2023-03-14T16:09:48;99860.66;;;19.90;45.86
44825;BME280;30542;47.928;2.138;2023-03-14T16:14:48;99875.88;;;19.90;45.87
44825;BME280;30542;47.928;2.138;2023-03-14T16:19:49;99884.47;;;19.81;46.20
44825;BME280;30542;47.928;2.138;2023-03-14T16:24:49;99886.63;;;19.79;46.04
44825;BME280;30542;47.928;2.138;2023-03-14T16:29:49;99911.75;;;19.83;46.20
44825;BME280;30542;47.928;2.138;2023-03-14T16:34:50;99933.13;;;19.78;46.13
44825;BME280;30542;47.928;2.138;2023-03-14T16:39:50;99935.53;;;19.80;46.03
44825;BME280;30542;47.928;2.138;2023-03-14T16:44:51;99958.00;;;19.79;45.82
44825;BME280;30542;47.928;2.138;2023-03-14T16:49:51;99983.09;;;19.78;45.98
44825;BME280;30542;47.928;2.138;2023-03-14T16:54:52;99994.06;;;19.71;45.41
44825;BME280;30542;47.928;2.138;2023-03-14T16:59:52;100011.16;;;19.65;44.69
44825;BME280;30542;47.928;2.138;2023-03-14T17:04:52;100016.22;;;19.61;42.98
44825;BME280;30542;47.928;2.138;2023-03-14T17:09:53;100024.25;;;19.72;43.09
44825;BME280;30542;47.928;2.138;2023-03-14T17:14:54;100041.88;;;19.73;42.77
44825;BME280;30542;47.928;2.138;2023-03-14T17:19:55;100039.47;;;19.76;43.19
44825;BME280;30542;47.928;2.138;2023-03-14T17:24:55;100053.13;;;19.80;43.57
44825;BME280;30542;47.928;2.138;2023-03-14T17:29:56;100060.34;;;19.79;43.83
44825;BME280;30542;47.928;2.138;2023-03-14T17:34:56;100072.63;;;19.80;44.23
44825;BME280;30542;47.928;2.138;2023-03-14T17:39:57;100093.47;;;19.78;44.26
44825;BME280;30542;47.928;2.138;2023-03-14T17:45:00;100098.03;;;19.83;44.29
44825;BME280;30542;47.928;2.138;2023-03-14T17:50:01;100112.97;;;19.84;44.35
44825;BME280;30542;47.928;2.138;2023-03-14T17:55:05;100118.84;;;19.81;44.59
44825;BME280;30542;47.928;2.138;2023-03-14T18:00:06;100127.16;;;19.74;44.78
44825;BME280;30542;47.928;2.138;2023-03-14T18:05:11;100133.28;;;19.80;44.71
44825;BME280;30542;47.928;2.138;2023-03-14T18:10:11;100150.91;;;19.81;45.02
44825;BME280;30542;47.928;2.138;2023-03-14T18:15:13;100157.63;;;19.83;44.67
44825;BME280;30542;47.928;2.138;2023-03-14T18:20:13;100165.88;;;19.82;44.74
44825;BME280;30542;47.928;2.138;2023-03-14T18:25:14;100185.69;;;19.91;44.96
44825;BME280;30542;47.928;2.138;2023-03-14T18:30:14;100179.78;;;19.84;44.89
44825;BME280;30542;47.928;2.138;2023-03-14T18:35:16;100188.88;;;19.88;44.69
44825;BME280;30542;47.928;2.138;2023-03-14T18:40:16;100222.03;;;19.97;45.12
44825;BME280;30542;47.928;2.138;2023-03-14T18:45:18;100229.25;;;19.97;45.14
44825;BME280;30542;47.928;2.138;2023-03-14T18:50:19;100229.25;;;19.97;44.75
44825;BME280;30542;47.928;2.138;2023-03-14T18:55:19;100238.06;;;19.97;45.29
44825;BME280;30542;47.928;2.138;2023-03-14T19:00:20;100254.13;;;19.92;45.46
44825;BME280;30542;47.928;2.138;2023-03-14T19:05:21;100263.22;;;19.91;45.61
44825;BME280;30542;47.928;2.138;2023-03-14T19:10:21;100265.31;;;19.84;45.60
44825;BME280;30542;47.928;2.138;2023-03-14T19:15:21;100275.97;;;19.74;45.89
44825;BME280;30542;47.928;2.138;2023-03-14T19:20:22;100285.06;;;19.73;46.01
44825;BME280;30542;47.928;2.138;2023-03-14T19:25:23;100283.13;;;19.58;46.16
44825;BME280;30542;47.928;2.138;2023-03-14T19:30:24;100300.31;;;19.77;46.46
44825;BME280;30542;47.928;2.138;2023-03-14T19:35:24;100315.31;;;19.83;46.03
44825;BME280;30542;47.928;2.138;2023-03-14T19:40:24;100308.34;;;19.82;45.93
44825;BME280;30542;47.928;2.138;2023-03-14T19:45:25;100330.81;;;19.86;45.94
44825;BME280;30542;47.928;2.138;2023-03-14T19:50:31;100337.78;;;19.88;45.96
44825;BME280;30542;47.928;2.138;2023-03-14T19:55:32;100344.44;;;19.85;46.22
44825;BME280;30542;47.928;2.138;2023-03-14T20:00:33;100348.69;;;19.81;45.92
44825;BME280;30542;47.928;2.138;2023-03-14T20:05:37;100345.75;;;19.77;46.03
44825;BME280;30542;47.928;2.138;2023-03-14T20:10:38;100358.59;;;19.85;46.20
44825;BME280;30542;47.928;2.138;2023-03-14T20:15:39;100379.47;;;19.89;46.02
44825;BME280;30542;47.928;2.138;2023-03-14T20:20:40;100386.69;;;19.88;46.02
44825;BME280;30542;47.928;2.138;2023-03-14T20:25:41;100377.59;;;19.84;46.03
44825;BME280;30542;47.928;2.138;2023-03-14T20:30:42;100386.41;;;19.84;46.13
44825;BME280;30542;47.928;2.138;2023-03-14T20:35:43;100398.44;;;19.87;46.05
44825;BME280;30542;47.928;2.138;2023-03-14T20:40:46;100398.19;;;19.89;46.26
44825;BME280;30542;47.928;2.138;2023-03-14T20:45:54;100385.81;;;19.77;46.13
44825;BME280;30542;47.928;2.138;2023-03-14T20:50:54;100400.06;;;19.88;46.21
44825;BME280;30542;47.928;2.138;2023-03-14T20:55:56;100401.94;;;19.88;45.91
44825;BME280;30542;47.928;2.138;2023-03-14T21:00:56;100410.75;;;19.88;46.18
44825;BME280;30542;47.928;2.138;2023-03-14T21:05:57;100405.91;;;19.85;45.92
44825;BME280;30542;47.928;2.138;2023-03-14T21:10:57;100413.94;;;19.85;46.18
44825;BME280;30542;47.928;2.138;2023-03-14T21:15:59;100426.19;;;19.81;46.34
44825;BME280;30542;47.928;2.138;2023-03-14T21:21:00;100433.41;;;19.75;46.24
44825;BME280;30542;47.928;2.138;2023-03-14T21:26:00;100438.44;;;19.67;46.33
44825;BME280;30542;47.928;2.138;2023-03-14T21:31:09;100447.50;;;19.66;46.11
44825;BME280;30542;47.928;2.138;2023-03-14T21:36:10;100444.75;;;19.60;46.23
44825;BME280;30542;47.928;2.138;2023-03-14T21:41:11;100449.81;;;19.57;46.35
44825;BME280;30542;47.928;2.138;2023-03-14T21:46:13;100452.75;;;19.55;46.48
44825;BME280;30542;47.928;2.138;2023-03-14T21:51:13;100463.16;;;19.52;46.35
44825;BME280;30542;47.928;2.138;2023-03-14T21:56:14;100468.47;;;19.52;46.16
44825;BME280;30542;47.928;2.138;2023-03-14T22:01:14;100483.97;;;19.50;46.46
44825;BME280;30542;47.928;2.138;2023-03-14T22:06:14;100483.69;;;19.46;46.50
44825;BME280;30542;47.928;2.138;2023-03-14T22:11:15;100482.88;;;19.46;46.37
44825;BME280;30542;47.928;2.138;2023-03-14T22:16:15;100489.53;;;19.43;46.34
44825;BME280;30542;47.928;2.138;2023-03-14T22:21:16;100488.72;;;19.43;46.05
44825;BME280;30542;47.928;2.138;2023-03-14T22:26:16;100485.44;;;19.30;46.39
44825;BME280;30542;47.928;2.138;2023-03-14T22:31:17;100496.94;;;19.36;46.35
44825;BME280;30542;47.928;2.138;2023-03-14T22:36:17;100501.47;;;19.35;46.02
44825;BME280;30542;47.928;2.138;2023-03-14T22:41:17;100505.50;;;19.33;46.01
44825;BME280;30542;47.928;2.138;2023-03-14T22:46:18;100503.31;;;19.30;45.91
44825;BME280;30542;47.928;2.138;2023-03-14T22:51:18;100511.03;;;19.26;46.11
44825;BME280;30542;47.928;2.138;2023-03-14T22:56:19;100491.97;;;19.12;45.79
44825;BME280;30542;47.928;2.138;2023-03-14T23:01:19;100508.56;;;19.20;46.25
44825;BME280;30542;47.928;2.138;2023-03-14T23:06:20;100510.13;;;19.16;46.20
44825;BME280;30542;47.928;2.138;2023-03-14T23:11:20;100511.19;;;19.15;45.73
44825;BME280;30542;47.928;2.138;2023-03-14T23:16:21;100503.03;;;18.99;46.21
44825;BME280;30542;47.928;2.138;2023-03-14T23:21:24;100522.31;;;19.06;46.06
44825;BME280;30542;47.928;2.138;2023-03-14T23:26:25;100525.75;;;19.02;45.80
44825;BME280;30542;47.928;2.138;2023-03-14T23:31:25;100527.03;;;18.99;46.21
44825;BME280;30542;47.928;2.138;2023-03-14T23:36:26;100538.25;;;18.96;46.20
44825;BME280;30542;47.928;2.138;2023-03-14T23:41:26;100541.41;;;18.93;46.20
44825;BME280;30542;47.928;2.138;2023-03-14T23:46:27;100521.56;;;18.84;45.92
44825;BME280;30542;47.928;2.138;2023-03-14T23:51:28;100527.44;;;18.86;45.98
44825;BME280;30542;47.928;2.138;2023-03-14T23:56:28;100534.91;;;18.84;46.07
